Terminal Aerodrome Forecast
Issued by NWS Jacksonville, FL

Home | Current Version | Previous Version | Text Only | Print | Product List | Glossary On
Versions: 1 2 3 4 5 6 7 8 9 10 11 12 13 14 15 16 17 18 19 20 21 22 23 24
000
FTUS42 KJAX 182100 AAB
TAFSSI
TAF AMD
KSSI 182120Z 1821/1918 02012KT 3SM RA BR SCT008 BKN015
      WS010/14035KT
      TEMPO 1821/1824 3/4SM +RA OVC008CB
     FM190000 08015G25KT 2SM RA BR OVC006
     FM190300 14015G25KT 2SM RA BR BKN005=

USA.gov is the U.S. government's official web portal to all federal, state and local government web resources and services.